sensor_id;sensor_type;location;lat;lon;timestamp;temperature;humidity
21271;DHT22;10795;50.796;3.860;2023-01-15T00:00:20;8.50;99.90
21271;DHT22;10795;50.796;3.860;2023-01-15T00:02:45;8.50;99.90
21271;DHT22;10795;50.796;3.860;2023-01-15T00:05:12;8.40;99.90
21271;DHT22;10795;50.796;3.860;2023-01-15T00:07:38;8.70;99.90
21271;DHT22;10795;50.796;3.860;2023-01-15T00:10:04;8.60;99.90
21271;DHT22;10795;50.796;3.860;2023-01-15T00:12:30;8.70;99.90
21271;DHT22;10795;50.796;3.860;2023-01-15T00:14:55;8.70;99.90
21271;DHT22;10795;50.796;3.860;2023-01-15T00:17:22;8.60;99.90
21271;DHT22;10795;50.796;3.860;2023-01-15T00:19:48;8.50;99.90
21271;DHT22;10795;50.796;3.860;2023-01-15T00:22:14;8.50;99.90
21271;DHT22;10795;50.796;3.860;2023-01-15T00:24:40;8.40;99.90
21271;DHT22;10795;50.796;3.860;2023-01-15T00:27:30;8.40;99.90
21271;DHT22;10795;50.796;3.860;2023-01-15T00:30:06;8.40;99.90
21271;DHT22;10795;50.796;3.860;2023-01-15T00:32:32;8.50;99.90
21271;DHT22;10795;50.796;3.860;2023-01-15T00:34:58;8.50;99.90
21271;DHT22;10795;50.796;3.860;2023-01-15T00:37:24;8.40;99.90
21271;DHT22;10795;50.796;3.860;2023-01-15T00:39:50;8.40;99.90
21271;DHT22;10795;50.796;3.860;2023-01-15T00:42:16;8.40;99.90
21271;DHT22;10795;50.796;3.860;2023-01-15T00:44:42;8.40;99.90
21271;DHT22;10795;50.796;3.860;2023-01-15T00:47:09;8.30;99.90
21271;DHT22;10795;50.796;3.860;2023-01-15T00:49:43;8.30;99.90
21271;DHT22;10795;50.796;3.860;2023-01-15T00:52:10;8.30;99.90
21271;DHT22;10795;50.796;3.860;2023-01-15T00:54:36;8.40;99.90
21271;DHT22;10795;50.796;3.860;2023-01-15T00:57:02;8.30;99.90
21271;DHT22;10795;50.796;3.860;2023-01-15T00:59:27;8.20;99.90
21271;DHT22;10795;50.796;3.860;2023-01-15T01:01:53;8.20;99.90
21271;DHT22;10795;50.796;3.860;2023-01-15T01:04:19;8.20;99.90
21271;DHT22;10795;50.796;3.860;2023-01-15T01:06:45;8.10;99.90
21271;DHT22;10795;50.796;3.860;2023-01-15T01:09:15;8.20;99.90
21271;DHT22;10795;50.796;3.860;2023-01-15T01:11:42;8.20;99.90
21271;DHT22;10795;50.796;3.860;2023-01-15T01:14:10;8.30;99.90
21271;DHT22;10795;50.796;3.860;2023-01-15T01:16:40;8.20;99.90
21271;DHT22;10795;50.796;3.860;2023-01-15T01:19:08;8.10;99.90
21271;DHT22;10795;50.796;3.860;2023-01-15T01:21:36;8.10;99.90
21271;DHT22;10795;50.796;3.860;2023-01-15T01:24:02;8.20;99.90
21271;DHT22;10795;50.796;3.860;2023-01-15T01:26:29;8.30;99.90
21271;DHT22;10795;50.796;3.860;2023-01-15T01:28:55;8.40;99.90
21271;DHT22;10795;50.796;3.860;2023-01-15T01:31:22;8.20;99.90
21271;DHT22;10795;50.796;3.860;2023-01-15T01:33:49;8.10;99.90
21271;DHT22;10795;50.796;3.860;2023-01-15T01:36:16;8.00;99.90
21271;DHT22;10795;50.796;3.860;2023-01-15T01:38:42;7.90;99.90
21271;DHT22;10795;50.796;3.860;2023-01-15T01:41:09;7.80;99.90
21271;DHT22;10795;50.796;3.860;2023-01-15T01:46:23;7.80;99.90
21271;DHT22;10795;50.796;3.860;2023-01-15T01:48:52;7.90;99.90
21271;DHT22;10795;50.796;3.860;2023-01-15T01:51:21;7.80;99.90
21271;DHT22;10795;50.796;3.860;2023-01-15T01:53:48;7.80;99.90
21271;DHT22;10795;50.796;3.860;2023-01-15T01:56:14;7.80;99.90
21271;DHT22;10795;50.796;3.860;2023-01-15T01:58:45;7.90;99.90
21271;DHT22;10795;50.796;3.860;2023-01-15T02:01:13;7.70;99.90
21271;DHT22;10795;50.796;3.860;2023-01-15T02:03:39;7.70;99.90
21271;DHT22;10795;50.796;3.860;2023-01-15T02:06:08;7.60;99.90
21271;DHT22;10795;50.796;3.860;2023-01-15T02:08:35;7.60;99.90
21271;DHT22;10795;50.796;3.860;2023-01-15T02:11:05;7.50;99.90
21271;DHT22;10795;50.796;3.860;2023-01-15T02:13:39;7.60;99.90
21271;DHT22;10795;50.796;3.860;2023-01-15T02:16:51;7.60;99.90
21271;DHT22;10795;50.796;3.860;2023-01-15T02:19:17;7.60;99.90
21271;DHT22;10795;50.796;3.860;2023-01-15T02:22:02;7.60;99.90
21271;DHT22;10795;50.796;3.860;2023-01-15T02:25:04;7.50;99.90
21271;DHT22;10795;50.796;3.860;2023-01-15T02:27:33;7.50;99.90
21271;DHT22;10795;50.796;3.860;2023-01-15T02:30:15;7.50;99.90
21271;DHT22;10795;50.796;3.860;2023-01-15T02:35:48;7.50;99.90
21271;DHT22;10795;50.796;3.860;2023-01-15T02:38:19;7.40;99.90
21271;DHT22;10795;50.796;3.860;2023-01-15T02:40:51;7.40;99.90
21271;DHT22;10795;50.796;3.860;2023-01-15T02:43:20;7.50;99.90
21271;DHT22;10795;50.796;3.860;2023-01-15T02:45:50;7.40;99.90
21271;DHT22;10795;50.796;3.860;2023-01-15T02:48:20;7.50;99.90
21271;DHT22;10795;50.796;3.860;2023-01-15T02:50:53;7.40;99.90
21271;DHT22;10795;50.796;3.860;2023-01-15T02:53:24;7.40;99.90
21271;DHT22;10795;50.796;3.860;2023-01-15T02:55:56;7.40;99.90
21271;DHT22;10795;50.796;3.860;2023-01-15T02:58:30;7.30;99.90
21271;DHT22;10795;50.796;3.860;2023-01-15T03:01:02;7.30;99.90
21271;DHT22;10795;50.796;3.860;2023-01-15T03:03:51;7.40;99.90
21271;DHT22;10795;50.796;3.860;2023-01-15T03:06:37;7.30;99.90
21271;DHT22;10795;50.796;3.860;2023-01-15T03:09:06;7.20;99.90
21271;DHT22;10795;50.796;3.860;2023-01-15T03:11:36;7.20;99.90
21271;DHT22;10795;50.796;3.860;2023-01-15T03:16:48;7.20;99.90
21271;DHT22;10795;50.796;3.860;2023-01-15T03:22:16;7.10;99.90
21271;DHT22;10795;50.796;3.860;2023-01-15T03:24:54;7.20;99.90
21271;DHT22;10795;50.796;3.860;2023-01-15T03:27:22;7.10;99.90
21271;DHT22;10795;50.796;3.860;2023-01-15T03:29:58;7.10;99.90
21271;DHT22;10795;50.796;3.860;2023-01-15T03:32:25;7.10;99.90
21271;DHT22;10795;50.796;3.860;2023-01-15T03:34:54;7.30;99.90
21271;DHT22;10795;50.796;3.860;2023-01-15T03:37:24;7.20;99.90
21271;DHT22;10795;50.796;3.860;2023-01-15T03:39:52;7.20;99.90
21271;DHT22;10795;50.796;3.860;2023-01-15T03:50:27;7.10;99.90
21271;DHT22;10795;50.796;3.860;2023-01-15T03:53:11;7.10;99.90
21271;DHT22;10795;50.796;3.860;2023-01-15T03:58:28;7.00;99.90
21271;DHT22;10795;50.796;3.860;2023-01-15T04:00:57;7.00;99.90
21271;DHT22;10795;50.796;3.860;2023-01-15T04:03:27;7.00;99.90
21271;DHT22;10795;50.796;3.860;2023-01-15T04:05:56;7.00;99.90
21271;DHT22;10795;50.796;3.860;2023-01-15T04:08:26;7.10;99.90
21271;DHT22;10795;50.796;3.860;2023-01-15T04:10:57;7.00;99.90
21271;DHT22;10795;50.796;3.860;2023-01-15T04:13:27;7.00;99.90
21271;DHT22;10795;50.796;3.860;2023-01-15T04:15:54;7.10;99.90
21271;DHT22;10795;50.796;3.860;2023-01-15T04:18:20;7.00;99.90
21271;DHT22;10795;50.796;3.860;2023-01-15T04:20:46;7.00;99.90
21271;DHT22;10795;50.796;3.860;2023-01-15T04:23:13;6.90;99.90
21271;DHT22;10795;50.796;3.860;2023-01-15T04:25:39;6.90;99.90
21271;DHT22;10795;50.796;3.860;2023-01-15T04:28:06;6.90;99.90
21271;DHT22;10795;50.796;3.860;2023-01-15T04:30:32;6.90;99.90
21271;DHT22;10795;50.796;3.860;2023-01-15T04:32:58;6.80;99.90
21271;DHT22;10795;50.796;3.860;2023-01-15T04:35:24;6.80;99.90
21271;DHT22;10795;50.796;3.860;2023-01-15T04:37:57;6.80;99.90
21271;DHT22;10795;50.796;3.860;2023-01-15T04:40:23;6.90;99.90
21271;DHT22;10795;50.796;3.860;2023-01-15T04:43:10;6.80;99.90
21271;DHT22;10795;50.796;3.860;2023-01-15T04:45:55;6.90;99.90
21271;DHT22;10795;50.796;3.860;2023-01-15T04:48:21;6.70;99.90
21271;DHT22;10795;50.796;3.860;2023-01-15T04:50:48;6.90;99.90
21271;DHT22;10795;50.796;3.860;2023-01-15T04:53:14;6.80;99.90
21271;DHT22;10795;50.796;3.860;2023-01-15T04:55:40;6.70;99.90
21271;DHT22;10795;50.796;3.860;2023-01-15T04:58:06;6.70;99.90
21271;DHT22;10795;50.796;3.860;2023-01-15T05:00:31;6.70;99.90
21271;DHT22;10795;50.796;3.860;2023-01-15T05:02:57;6.80;99.90
21271;DHT22;10795;50.796;3.860;2023-01-15T05:05:23;6.80;99.90
21271;DHT22;10795;50.796;3.860;2023-01-15T05:07:49;6.70;99.90
21271;DHT22;10795;50.796;3.860;2023-01-15T05:10:15;6.70;99.90
21271;DHT22;10795;50.796;3.860;2023-01-15T05:12:40;6.70;99.90
21271;DHT22;10795;50.796;3.860;2023-01-15T05:15:06;6.70;99.90
21271;DHT22;10795;50.796;3.860;2023-01-15T05:17:32;6.60;99.90
21271;DHT22;10795;50.796;3.860;2023-01-15T05:19:58;6.80;99.90
21271;DHT22;10795;50.796;3.860;2023-01-15T05:22:24;6.70;99.90
21271;DHT22;10795;50.796;3.860;2023-01-15T05:24:51;6.80;99.90
21271;DHT22;10795;50.796;3.860;2023-01-15T05:27:17;6.70;99.90
21271;DHT22;10795;50.796;3.860;2023-01-15T05:29:42;6.60;99.90
21271;DHT22;10795;50.796;3.860;2023-01-15T05:32:08;6.60;99.90
21271;DHT22;10795;50.796;3.860;2023-01-15T05:34:34;6.50;99.90
21271;DHT22;10795;50.796;3.860;2023-01-15T05:37:00;6.80;99.90
21271;DHT22;10795;50.796;3.860;2023-01-15T05:39:26;6.70;99.90
21271;DHT22;10795;50.796;3.860;2023-01-15T05:41:52;6.50;99.90
21271;DHT22;10795;50.796;3.860;2023-01-15T05:44:26;6.40;99.90
21271;DHT22;10795;50.796;3.860;2023-01-15T05:46:56;6.60;99.90
21271;DHT22;10795;50.796;3.860;2023-01-15T05:49:24;6.50;99.90
21271;DHT22;10795;50.796;3.860;2023-01-15T05:51:51;6.80;99.90
21271;DHT22;10795;50.796;3.860;2023-01-15T05:54:20;6.20;99.90
21271;DHT22;10795;50.796;3.860;2023-01-15T05:56:46;6.10;99.90
21271;DHT22;10795;50.796;3.860;2023-01-15T05:59:15;6.40;99.90
21271;DHT22;10795;50.796;3.860;2023-01-15T06:01:41;6.20;99.90
21271;DHT22;10795;50.796;3.860;2023-01-15T06:04:08;6.10;99.90
21271;DHT22;10795;50.796;3.860;2023-01-15T06:06:34;6.20;99.90
21271;DHT22;10795;50.796;3.860;2023-01-15T06:09:01;6.10;99.90
21271;DHT22;10795;50.796;3.860;2023-01-15T06:11:27;6.00;99.90
21271;DHT22;10795;50.796;3.860;2023-01-15T06:13:53;6.00;99.90
21271;DHT22;10795;50.796;3.860;2023-01-15T06:16:19;5.90;99.90
21271;DHT22;10795;50.796;3.860;2023-01-15T06:18:45;6.10;99.90
21271;DHT22;10795;50.796;3.860;2023-01-15T06:21:12;6.20;99.90
21271;DHT22;10795;50.796;3.860;2023-01-15T06:23:39;6.00;99.90
21271;DHT22;10795;50.796;3.860;2023-01-15T06:26:07;6.00;99.90
21271;DHT22;10795;50.796;3.860;2023-01-15T06:28:33;6.10;99.90
21271;DHT22;10795;50.796;3.860;2023-01-15T06:30:59;6.10;99.90
21271;DHT22;10795;50.796;3.860;2023-01-15T06:33:28;6.20;99.90
21271;DHT22;10795;50.796;3.860;2023-01-15T06:35:54;6.00;99.90
21271;DHT22;10795;50.796;3.860;2023-01-15T06:38:20;6.10;99.90
21271;DHT22;10795;50.796;3.860;2023-01-15T06:40:45;6.00;99.90
21271;DHT22;10795;50.796;3.860;2023-01-15T06:43:12;6.00;99.90
21271;DHT22;10795;50.796;3.860;2023-01-15T06:45:56;6.00;99.90
21271;DHT22;10795;50.796;3.860;2023-01-15T06:48:40;5.90;99.90
21271;DHT22;10795;50.796;3.860;2023-01-15T06:51:08;5.90;99.90
21271;DHT22;10795;50.796;3.860;2023-01-15T06:53:33;6.00;99.90
21271;DHT22;10795;50.796;3.860;2023-01-15T06:56:00;5.90;99.90
21271;DHT22;10795;50.796;3.860;2023-01-15T06:58:26;6.10;99.90
21271;DHT22;10795;50.796;3.860;2023-01-15T07:00:52;5.90;99.90
21271;DHT22;10795;50.796;3.860;2023-01-15T07:03:22;5.90;99.90
21271;DHT22;10795;50.796;3.860;2023-01-15T07:05:48;6.10;99.90
21271;DHT22;10795;50.796;3.860;2023-01-15T07:08:14;5.90;99.90
21271;DHT22;10795;50.796;3.860;2023-01-15T07:10:40;5.80;99.90
21271;DHT22;10795;50.796;3.860;2023-01-15T07:13:07;5.90;99.90
21271;DHT22;10795;50.796;3.860;2023-01-15T07:15:33;5.90;99.90
21271;DHT22;10795;50.796;3.860;2023-01-15T07:17:59;5.80;99.90
21271;DHT22;10795;50.796;3.860;2023-01-15T07:20:25;5.70;99.90
21271;DHT22;10795;50.796;3.860;2023-01-15T07:22:51;5.70;99.90
21271;DHT22;10795;50.796;3.860;2023-01-15T07:25:17;5.60;99.90
21271;DHT22;10795;50.796;3.860;2023-01-15T07:27:45;5.60;99.90
21271;DHT22;10795;50.796;3.860;2023-01-15T07:30:12;5.60;99.90
21271;DHT22;10795;50.796;3.860;2023-01-15T07:32:38;5.60;99.90
21271;DHT22;10795;50.796;3.860;2023-01-15T07:35:04;5.60;99.90
21271;DHT22;10795;50.796;3.860;2023-01-15T07:37:30;5.60;99.90
21271;DHT22;10795;50.796;3.860;2023-01-15T07:39:56;5.50;99.90
21271;DHT22;10795;50.796;3.860;2023-01-15T07:42:22;5.50;99.90
21271;DHT22;10795;50.796;3.860;2023-01-15T07:45:08;5.50;99.90
21271;DHT22;10795;50.796;3.860;2023-01-15T07:47:53;5.50;99.90
21271;DHT22;10795;50.796;3.860;2023-01-15T07:50:37;5.50;99.90
21271;DHT22;10795;50.796;3.860;2023-01-15T07:53:03;5.50;99.90
21271;DHT22;10795;50.796;3.860;2023-01-15T07:55:29;5.50;99.90
21271;DHT22;10795;50.796;3.860;2023-01-15T07:57:55;5.50;99.90
21271;DHT22;10795;50.796;3.860;2023-01-15T08:00:23;5.50;99.90
21271;DHT22;10795;50.796;3.860;2023-01-15T08:02:49;5.40;99.90
21271;DHT22;10795;50.796;3.860;2023-01-15T08:05:16;5.40;99.90
21271;DHT22;10795;50.796;3.860;2023-01-15T08:07:42;5.40;99.90
21271;DHT22;10795;50.796;3.860;2023-01-15T08:10:09;5.60;99.90
21271;DHT22;10795;50.796;3.860;2023-01-15T08:12:35;5.50;99.90
21271;DHT22;10795;50.796;3.860;2023-01-15T08:15:20;5.50;99.90
21271;DHT22;10795;50.796;3.860;2023-01-15T08:17:47;5.50;99.90
21271;DHT22;10795;50.796;3.860;2023-01-15T08:20:19;5.50;99.90
21271;DHT22;10795;50.796;3.860;2023-01-15T08:22:45;5.60;99.90
21271;DHT22;10795;50.796;3.860;2023-01-15T08:25:14;5.60;99.90
21271;DHT22;10795;50.796;3.860;2023-01-15T08:27:41;5.60;99.90
21271;DHT22;10795;50.796;3.860;2023-01-15T08:30:19;5.60;99.90
21271;DHT22;10795;50.796;3.860;2023-01-15T08:32:45;5.60;99.90
21271;DHT22;10795;50.796;3.860;2023-01-15T08:35:12;5.70;99.90
21271;DHT22;10795;50.796;3.860;2023-01-15T08:37:41;5.70;99.90
21271;DHT22;10795;50.796;3.860;2023-01-15T08:40:09;5.70;99.90
21271;DHT22;10795;50.796;3.860;2023-01-15T08:42:35;5.70;99.90
21271;DHT22;10795;50.796;3.860;2023-01-15T08:45:01;5.80;99.90
21271;DHT22;10795;50.796;3.860;2023-01-15T08:47:27;5.80;99.90
21271;DHT22;10795;50.796;3.860;2023-01-15T08:49:53;5.80;99.90
21271;DHT22;10795;50.796;3.860;2023-01-15T08:52:19;5.80;99.90
21271;DHT22;10795;50.796;3.860;2023-01-15T08:54:45;5.80;99.90
21271;DHT22;10795;50.796;3.860;2023-01-15T08:57:11;5.80;99.90
21271;DHT22;10795;50.796;3.860;2023-01-15T08:59:38;5.80;99.90
21271;DHT22;10795;50.796;3.860;2023-01-15T09:02:04;5.80;99.90
21271;DHT22;10795;50.796;3.860;2023-01-15T09:04:30;5.90;99.90
21271;DHT22;10795;50.796;3.860;2023-01-15T09:06:55;5.90;99.90
21271;DHT22;10795;50.796;3.860;2023-01-15T09:09:21;6.00;99.90
21271;DHT22;10795;50.796;3.860;2023-01-15T09:11:47;6.00;99.90
21271;DHT22;10795;50.796;3.860;2023-01-15T09:14:14;6.10;99.90
21271;DHT22;10795;50.796;3.860;2023-01-15T09:16:40;6.20;99.90
21271;DHT22;10795;50.796;3.860;2023-01-15T09:19:08;6.10;99.90
21271;DHT22;10795;50.796;3.860;2023-01-15T09:21:34;5.90;99.90
21271;DHT22;10795;50.796;3.860;2023-01-15T09:24:00;6.00;99.90
21271;DHT22;10795;50.796;3.860;2023-01-15T09:26:37;6.00;99.90
21271;DHT22;10795;50.796;3.860;2023-01-15T09:29:04;5.90;99.90
21271;DHT22;10795;50.796;3.860;2023-01-15T09:31:30;5.90;99.90
21271;DHT22;10795;50.796;3.860;2023-01-15T09:33:56;5.80;99.90
21271;DHT22;10795;50.796;3.860;2023-01-15T09:36:28;5.70;99.90
21271;DHT22;10795;50.796;3.860;2023-01-15T09:38:55;5.70;99.90
21271;DHT22;10795;50.796;3.860;2023-01-15T09:41:22;5.80;99.90
21271;DHT22;10795;50.796;3.860;2023-01-15T09:44:28;5.80;99.90
21271;DHT22;10795;50.796;3.860;2023-01-15T09:49:48;5.80;99.90
21271;DHT22;10795;50.796;3.860;2023-01-15T09:57:18;5.80;99.90
21271;DHT22;10795;50.796;3.860;2023-01-15T09:59:47;5.70;99.90
21271;DHT22;10795;50.796;3.860;2023-01-15T10:02:37;5.60;99.90
21271;DHT22;10795;50.796;3.860;2023-01-15T10:10:31;5.60;99.90
21271;DHT22;10795;50.796;3.860;2023-01-15T10:13:30;5.60;99.90
21271;DHT22;10795;50.796;3.860;2023-01-15T10:15:59;5.60;99.90
21271;DHT22;10795;50.796;3.860;2023-01-15T10:18:26;5.80;99.90
21271;DHT22;10795;50.796;3.860;2023-01-15T10:23:36;6.10;99.90
21271;DHT22;10795;50.796;3.860;2023-01-15T10:26:35;6.30;99.90
21271;DHT22;10795;50.796;3.860;2023-01-15T10:35:29;6.50;99.90
21271;DHT22;10795;50.796;3.860;2023-01-15T10:38:25;6.70;99.90
21271;DHT22;10795;50.796;3.860;2023-01-15T10:44:12;7.00;99.90
21271;DHT22;10795;50.796;3.860;2023-01-15T10:46:40;7.10;99.90
21271;DHT22;10795;50.796;3.860;2023-01-15T10:49:17;7.20;99.90
21271;DHT22;10795;50.796;3.860;2023-01-15T10:51:50;7.20;99.90
21271;DHT22;10795;50.796;3.860;2023-01-15T10:54:37;7.40;99.90
21271;DHT22;10795;50.796;3.860;2023-01-15T10:57:08;7.30;99.90
21271;DHT22;10795;50.796;3.860;2023-01-15T10:59:56;7.20;99.90
21271;DHT22;10795;50.796;3.860;2023-01-15T11:02:32;7.30;99.90
21271;DHT22;10795;50.796;3.860;2023-01-15T11:05:00;7.00;99.90
21271;DHT22;10795;50.796;3.860;2023-01-15T11:07:37;6.90;99.90
21271;DHT22;10795;50.796;3.860;2023-01-15T11:10:08;7.10;99.90
21271;DHT22;10795;50.796;3.860;2023-01-15T11:12:51;7.10;99.90
21271;DHT22;10795;50.796;3.860;2023-01-15T11:15:37;7.00;99.90
21271;DHT22;10795;50.796;3.860;2023-01-15T11:18:29;7.00;99.90
21271;DHT22;10795;50.796;3.860;2023-01-15T11:21:17;7.00;99.90
21271;DHT22;10795;50.796;3.860;2023-01-15T11:23:43;7.00;99.90
21271;DHT22;10795;50.796;3.860;2023-01-15T11:26:17;7.20;99.90
21271;DHT22;10795;50.796;3.860;2023-01-15T11:28:45;7.20;99.90
21271;DHT22;10795;50.796;3.860;2023-01-15T11:31:12;7.50;99.90
21271;DHT22;10795;50.796;3.860;2023-01-15T11:33:38;7.50;99.90
21271;DHT22;10795;50.796;3.860;2023-01-15T11:36:07;7.40;99.90
21271;DHT22;10795;50.796;3.860;2023-01-15T11:42:11;7.30;99.90
21271;DHT22;10795;50.796;3.860;2023-01-15T11:45:32;7.30;99.90
21271;DHT22;10795;50.796;3.860;2023-01-15T12:03:10;7.10;99.90
21271;DHT22;10795;50.796;3.860;2023-01-15T12:22:25;7.20;99.90
21271;DHT22;10795;50.796;3.860;2023-01-15T13:15:16;7.30;99.90
21271;DHT22;10795;50.796;3.860;2023-01-15T13:18:06;7.10;99.90
21271;DHT22;10795;50.796;3.860;2023-01-15T13:36:14;6.80;99.90
21271;DHT22;10795;50.796;3.860;2023-01-15T13:38:51;6.70;99.90
21271;DHT22;10795;50.796;3.860;2023-01-15T13:41:50;6.90;99.90
21271;DHT22;10795;50.796;3.860;2023-01-15T13:44:48;6.70;99.90
21271;DHT22;10795;50.796;3.860;2023-01-15T13:48:15;6.70;99.90
21271;DHT22;10795;50.796;3.860;2023-01-15T13:50:52;6.60;99.90
21271;DHT22;10795;50.796;3.860;2023-01-15T13:56:45;6.70;99.90
21271;DHT22;10795;50.796;3.860;2023-01-15T13:59:43;6.70;99.90
21271;DHT22;10795;50.796;3.860;2023-01-15T14:02:49;6.70;99.90
21271;DHT22;10795;50.796;3.860;2023-01-15T14:19:48;6.90;99.90
21271;DHT22;10795;50.796;3.860;2023-01-15T14:23:34;6.80;99.90
21271;DHT22;10795;50.796;3.860;2023-01-15T14:36:36;6.50;99.90
21271;DHT22;10795;50.796;3.860;2023-01-15T14:42:25;6.50;99.90
21271;DHT22;10795;50.796;3.860;2023-01-15T14:48:03;6.50;99.90
21271;DHT22;10795;50.796;3.860;2023-01-15T14:50:33;6.40;99.90
21271;DHT22;10795;50.796;3.860;2023-01-15T15:02:21;6.30;99.90
21271;DHT22;10795;50.796;3.860;2023-01-15T15:04:57;6.30;99.90
21271;DHT22;10795;50.796;3.860;2023-01-15T15:07:43;6.30;99.90
21271;DHT22;10795;50.796;3.860;2023-01-15T15:10:42;6.20;99.90
21271;DHT22;10795;50.796;3.860;2023-01-15T15:13:36;6.20;99.90
21271;DHT22;10795;50.796;3.860;2023-01-15T15:19:41;6.20;99.90
21271;DHT22;10795;50.796;3.860;2023-01-15T15:22:25;6.20;99.90
21271;DHT22;10795;50.796;3.860;2023-01-15T15:25:09;6.30;99.90
21271;DHT22;10795;50.796;3.860;2023-01-15T15:27:48;6.10;99.90
21271;DHT22;10795;50.796;3.860;2023-01-15T15:30:44;6.10;99.90
21271;DHT22;10795;50.796;3.860;2023-01-15T15:33:43;6.00;99.90
21271;DHT22;10795;50.796;3.860;2023-01-15T15:36:30;6.00;99.90
21271;DHT22;10795;50.796;3.860;2023-01-15T15:45:57;5.80;99.90
21271;DHT22;10795;50.796;3.860;2023-01-15T15:49:02;5.70;99.90
21271;DHT22;10795;50.796;3.860;2023-01-15T15:54:31;5.50;99.90
21271;DHT22;10795;50.796;3.860;2023-01-15T15:59:47;5.60;99.90
21271;DHT22;10795;50.796;3.860;2023-01-15T16:02:37;5.50;99.90
21271;DHT22;10795;50.796;3.860;2023-01-15T16:08:15;5.50;99.90
21271;DHT22;10795;50.796;3.860;2023-01-15T16:10:46;5.60;99.90
21271;DHT22;10795;50.796;3.860;2023-01-15T16:13:48;5.60;99.90
21271;DHT22;10795;50.796;3.860;2023-01-15T16:16:25;5.60;99.90
21271;DHT22;10795;50.796;3.860;2023-01-15T16:19:02;5.50;99.90
21271;DHT22;10795;50.796;3.860;2023-01-15T16:21:35;5.70;99.90
21271;DHT22;10795;50.796;3.860;2023-01-15T16:24:06;5.60;99.90
21271;DHT22;10795;50.796;3.860;2023-01-15T16:26:43;5.50;99.90
21271;DHT22;10795;50.796;3.860;2023-01-15T16:29:19;5.50;99.90
21271;DHT22;10795;50.796;3.860;2023-01-15T16:31:46;5.50;99.90
21271;DHT22;10795;50.796;3.860;2023-01-15T16:34:50;5.50;99.90
21271;DHT22;10795;50.796;3.860;2023-01-15T16:37:27;5.40;99.90
21271;DHT22;10795;50.796;3.860;2023-01-15T16:40:02;5.50;99.90
21271;DHT22;10795;50.796;3.860;2023-01-15T16:42:43;5.50;99.90
21271;DHT22;10795;50.796;3.860;2023-01-15T16:45:25;5.60;99.90
21271;DHT22;10795;50.796;3.860;2023-01-15T16:50:35;5.60;99.90
21271;DHT22;10795;50.796;3.860;2023-01-15T17:00:55;5.90;99.90
21271;DHT22;10795;50.796;3.860;2023-01-15T19:51:09;6.40;99.90
21271;DHT22;10795;50.796;3.860;2023-01-15T19:53:38;6.20;99.90
21271;DHT22;10795;50.796;3.860;2023-01-15T19:56:06;6.20;99.90
21271;DHT22;10795;50.796;3.860;2023-01-15T19:58:37;6.20;99.90
21271;DHT22;10795;50.796;3.860;2023-01-15T20:01:12;6.10;99.90
21271;DHT22;10795;50.796;3.860;2023-01-15T20:03:42;6.20;99.90
21271;DHT22;10795;50.796;3.860;2023-01-15T20:06:10;6.00;99.90
21271;DHT22;10795;50.796;3.860;2023-01-15T20:08:42;6.00;99.90
21271;DHT22;10795;50.796;3.860;2023-01-15T20:11:10;6.10;99.90
21271;DHT22;10795;50.796;3.860;2023-01-15T20:13:41;6.10;99.90
21271;DHT22;10795;50.796;3.860;2023-01-15T20:16:19;6.00;99.90
21271;DHT22;10795;50.796;3.860;2023-01-15T20:18:50;5.90;99.90
21271;DHT22;10795;50.796;3.860;2023-01-15T20:21:23;6.00;99.90
21271;DHT22;10795;50.796;3.860;2023-01-15T20:23:54;5.80;99.90
21271;DHT22;10795;50.796;3.860;2023-01-15T20:26:23;5.80;99.90
21271;DHT22;10795;50.796;3.860;2023-01-15T20:28:51;5.70;99.90
21271;DHT22;10795;50.796;3.860;2023-01-15T20:31:18;5.90;99.90
21271;DHT22;10795;50.796;3.860;2023-01-15T20:33:46;5.80;99.90
21271;DHT22;10795;50.796;3.860;2023-01-15T20:36:25;5.70;99.90
21271;DHT22;10795;50.796;3.860;2023-01-15T20:38:57;5.60;99.90
21271;DHT22;10795;50.796;3.860;2023-01-15T20:41:23;5.50;99.90
21271;DHT22;10795;50.796;3.860;2023-01-15T20:44:11;5.50;99.90
21271;DHT22;10795;50.796;3.860;2023-01-15T20:46:57;5.50;99.90
21271;DHT22;10795;50.796;3.860;2023-01-15T20:49:23;5.40;99.90
21271;DHT22;10795;50.796;3.860;2023-01-15T20:51:50;5.30;99.90
21271;DHT22;10795;50.796;3.860;2023-01-15T20:54:18;5.50;99.90
21271;DHT22;10795;50.796;3.860;2023-01-15T20:56:44;5.60;99.90
21271;DHT22;10795;50.796;3.860;2023-01-15T20:59:10;5.50;99.90
21271;DHT22;10795;50.796;3.860;2023-01-15T21:01:36;5.50;99.90
21271;DHT22;10795;50.796;3.860;2023-01-15T21:04:17;5.50;99.90
21271;DHT22;10795;50.796;3.860;2023-01-15T21:06:43;5.60;99.90
21271;DHT22;10795;50.796;3.860;2023-01-15T21:09:12;5.60;99.90
21271;DHT22;10795;50.796;3.860;2023-01-15T21:11:47;5.50;99.90
21271;DHT22;10795;50.796;3.860;2023-01-15T21:14:13;5.60;99.90
21271;DHT22;10795;50.796;3.860;2023-01-15T21:16:39;5.50;99.90
21271;DHT22;10795;50.796;3.860;2023-01-15T21:19:05;5.60;99.90
21271;DHT22;10795;50.796;3.860;2023-01-15T21:21:31;5.60;99.90
21271;DHT22;10795;50.796;3.860;2023-01-15T21:24:01;5.60;99.90
21271;DHT22;10795;50.796;3.860;2023-01-15T21:26:27;5.50;99.90
21271;DHT22;10795;50.796;3.860;2023-01-15T21:28:54;5.50;99.90
21271;DHT22;10795;50.796;3.860;2023-01-15T21:31:20;5.60;99.90
21271;DHT22;10795;50.796;3.860;2023-01-15T21:33:46;5.60;99.90
21271;DHT22;10795;50.796;3.860;2023-01-15T21:36:13;5.50;99.90
21271;DHT22;10795;50.796;3.860;2023-01-15T21:38:40;5.50;99.90
21271;DHT22;10795;50.796;3.860;2023-01-15T21:41:13;5.50;99.90
21271;DHT22;10795;50.796;3.860;2023-01-15T21:43:40;5.40;99.90
21271;DHT22;10795;50.796;3.860;2023-01-15T21:46:41;5.50;99.90
21271;DHT22;10795;50.796;3.860;2023-01-15T21:49:09;5.50;99.90
21271;DHT22;10795;50.796;3.860;2023-01-15T21:51:35;5.30;99.90
21271;DHT22;10795;50.796;3.860;2023-01-15T21:54:01;5.30;99.90
21271;DHT22;10795;50.796;3.860;2023-01-15T21:56:27;5.20;99.90
21271;DHT22;10795;50.796;3.860;2023-01-15T21:58:53;5.20;99.90
21271;DHT22;10795;50.796;3.860;2023-01-15T22:01:19;5.20;99.90
21271;DHT22;10795;50.796;3.860;2023-01-15T22:03:45;5.20;99.90
21271;DHT22;10795;50.796;3.860;2023-01-15T22:06:14;5.40;99.90
21271;DHT22;10795;50.796;3.860;2023-01-15T22:08:45;5.30;99.90
21271;DHT22;10795;50.796;3.860;2023-01-15T22:11:14;5.20;99.90
21271;DHT22;10795;50.796;3.860;2023-01-15T22:13:43;5.20;99.90
21271;DHT22;10795;50.796;3.860;2023-01-15T22:16:09;5.20;99.90
21271;DHT22;10795;50.796;3.860;2023-01-15T22:18:37;5.20;99.90
21271;DHT22;10795;50.796;3.860;2023-01-15T22:21:06;5.20;99.90
21271;DHT22;10795;50.796;3.860;2023-01-15T22:23:33;5.00;99.90
21271;DHT22;10795;50.796;3.860;2023-01-15T22:26:01;5.10;99.90
21271;DHT22;10795;50.796;3.860;2023-01-15T22:28:27;5.00;99.90
21271;DHT22;10795;50.796;3.860;2023-01-15T22:30:53;5.10;99.90
21271;DHT22;10795;50.796;3.860;2023-01-15T22:33:19;5.20;99.90
21271;DHT22;10795;50.796;3.860;2023-01-15T22:35:57;5.20;99.90
21271;DHT22;10795;50.796;3.860;2023-01-15T22:38:24;5.20;99.90
21271;DHT22;10795;50.796;3.860;2023-01-15T22:40:50;5.10;99.90
21271;DHT22;10795;50.796;3.860;2023-01-15T22:43:16;5.10;99.90